createdAt,value
2022-10-29T00:01:59.832Z,9.63
2022-10-29T00:04:27.596Z,9.60
2022-10-29T00:06:55.216Z,9.60
2022-10-29T00:09:22.868Z,10.13
2022-10-29T00:11:50.444Z,9.10
2022-10-29T00:14:18.113Z,7.43
2022-10-29T00:16:47.063Z,9.97
2022-10-29T00:19:14.723Z,8.50
2022-10-29T00:21:42.339Z,8.97
2022-10-29T00:24:10.426Z,9.00
2022-10-29T00:26:38.014Z,9.37
2022-10-29T00:29:05.633Z,8.13
2022-10-29T00:31:33.414Z,8.10
2022-10-29T00:34:02.828Z,8.03
2022-10-29T00:36:31.239Z,7.73
2022-10-29T00:38:58.955Z,7.57
2022-10-29T00:41:29.082Z,7.73
2022-10-29T00:44:23.776Z,7.63
2022-10-29T00:46:54.145Z,7.47
2022-10-29T00:49:24.734Z,8.57
2022-10-29T00:51:52.793Z,8.33
2022-10-29T00:54:20.693Z,7.43
2022-10-29T00:56:52.618Z,6.73
2022-10-29T00:59:20.289Z,7.90
2022-10-29T01:01:49.564Z,8.67
2022-10-29T01:04:17.761Z,7.63
2022-10-29T01:06:47.507Z,6.90
2022-10-29T01:09:15.162Z,7.60
2022-10-29T01:11:52.055Z,8.00
2022-10-29T01:14:29.383Z,6.77
2022-10-29T01:17:01.345Z,7.77
2022-10-29T01:19:49.280Z,7.33
2022-10-29T01:22:21.866Z,8.00
2022-10-29T01:25:09.159Z,8.73
2022-10-29T01:27:49.477Z,8.77
2022-10-29T01:30:22.930Z,9.07
2022-10-29T01:33:03.640Z,8.70
2022-10-29T01:35:34.290Z,7.50
2022-10-29T01:38:11.671Z,8.40
2022-10-29T01:40:42.521Z,8.50
2022-10-29T01:45:52.423Z,8.13
2022-10-29T01:48:29.016Z,7.50
2022-10-29T01:51:02.212Z,9.67
2022-10-29T01:53:31.164Z,8.00
2022-10-29T01:55:58.744Z,8.40
2022-10-29T01:58:26.714Z,8.27
2022-10-29T02:01:01.795Z,9.40
2022-10-29T02:03:36.107Z,8.40
2022-10-29T02:06:10.087Z,9.00
2022-10-29T02:08:42.910Z,8.87
2022-10-29T02:11:15.177Z,8.70
2022-10-29T02:13:45.520Z,9.13
2022-10-29T02:16:14.878Z,8.60
2022-10-29T02:18:45.831Z,8.47
2022-10-29T02:21:16.372Z,10.20
2022-10-29T02:23:44.196Z,8.50
2022-10-29T02:26:12.280Z,7.80
2022-10-29T02:28:39.925Z,8.10
2022-10-29T02:31:07.535Z,9.83
2022-10-29T02:33:35.212Z,9.70
2022-10-29T02:36:04.604Z,8.10
2022-10-29T02:38:32.396Z,8.50
2022-10-29T02:41:00.000Z,8.30
2022-10-29T02:43:27.613Z,8.20
2022-10-29T02:46:14.181Z,9.67
2022-10-29T02:48:41.902Z,9.63
2022-10-29T02:51:11.118Z,9.43
2022-10-29T02:53:38.907Z,10.80
2022-10-29T02:56:07.798Z,10.63
2022-10-29T02:58:35.666Z,9.93
2022-10-29T03:01:03.346Z,9.10
2022-10-29T03:03:31.285Z,10.33
2022-10-29T03:05:58.995Z,9.87
2022-10-29T03:08:28.020Z,8.77
2022-10-29T03:10:55.796Z,9.63
2022-10-29T03:13:23.437Z,10.83
2022-10-29T03:15:51.079Z,9.00
2022-10-29T03:18:18.641Z,10.47
2022-10-29T03:20:47.499Z,9.13
2022-10-29T03:23:15.225Z,9.87
2022-10-29T03:25:44.219Z,9.97
2022-10-29T03:28:11.854Z,9.53
2022-10-29T03:30:39.514Z,9.07
2022-10-29T03:33:07.328Z,10.00
2022-10-29T03:35:35.217Z,10.77
2022-10-29T03:38:03.112Z,10.43
2022-10-29T03:40:36.897Z,10.30
2022-10-29T03:43:09.368Z,10.90
2022-10-29T03:45:40.801Z,10.80
2022-10-29T03:48:11.558Z,11.60
2022-10-29T03:50:45.119Z,11.90
2022-10-29T03:53:12.850Z,10.13
2022-10-29T03:55:40.500Z,11.80
2022-10-29T03:58:09.489Z,10.90
2022-10-29T04:00:37.083Z,10.67
2022-10-29T04:03:04.849Z,11.17
2022-10-29T04:05:32.510Z,11.73
2022-10-29T04:08:00.120Z,11.27
2022-10-29T04:10:27.817Z,11.10
2022-10-29T04:12:55.558Z,11.27
2022-10-29T04:15:24.732Z,10.80
2022-10-29T04:17:52.329Z,10.43
2022-10-29T04:20:43.307Z,11.93
2022-10-29T04:26:06.107Z,11.70
2022-10-29T04:28:45.351Z,11.67
2022-10-29T04:31:14.924Z,12.13
2022-10-29T04:33:42.672Z,10.77
2022-10-29T04:36:10.547Z,11.67
2022-10-29T04:38:38.368Z,11.43
2022-10-29T04:41:06.160Z,12.37
2022-10-29T04:43:33.855Z,12.33
2022-10-29T04:46:01.651Z,10.70
2022-10-29T04:48:30.925Z,10.33
2022-10-29T04:50:58.575Z,10.60
2022-10-29T04:53:26.226Z,13.63
2022-10-29T04:56:00.220Z,11.70
2022-10-29T04:58:27.953Z,11.53
2022-10-29T05:00:55.736Z,13.47
2022-10-29T05:03:23.426Z,11.50
2022-10-29T05:05:52.361Z,12.00
2022-10-29T05:08:20.189Z,11.50
2022-10-29T05:10:47.849Z,12.30
2022-10-29T05:13:15.701Z,13.10
2022-10-29T05:15:43.294Z,11.57
2022-10-29T05:18:11.411Z,13.00
2022-10-29T05:20:39.007Z,12.30
2022-10-29T05:23:09.230Z,14.00
2022-10-29T05:25:39.035Z,12.10
2022-10-29T05:28:08.047Z,12.10
2022-10-29T05:30:35.936Z,12.23
2022-10-29T05:33:06.962Z,12.53
2022-10-29T05:35:34.948Z,11.40
2022-10-29T05:38:02.782Z,13.10
2022-10-29T05:40:31.861Z,11.93
2022-10-29T05:42:59.646Z,11.67
2022-10-29T05:45:27.642Z,12.10
2022-10-29T05:47:58.510Z,14.03
2022-10-29T05:50:26.234Z,12.00
2022-10-29T05:52:57.884Z,12.10
2022-10-29T05:55:26.229Z,14.23
2022-10-29T05:57:58.042Z,12.30
2022-10-29T06:00:25.733Z,12.60
2022-10-29T06:02:53.382Z,11.30
2022-10-29T06:05:21.105Z,13.40
2022-10-29T06:07:54.494Z,13.60
2022-10-29T06:10:22.425Z,13.60
2022-10-29T06:12:50.216Z,13.13
2022-10-29T06:15:19.536Z,12.77
2022-10-29T06:17:49.117Z,13.70
2022-10-29T06:20:19.104Z,13.33
2022-10-29T06:22:46.619Z,11.97
2022-10-29T06:25:14.531Z,13.00
2022-10-29T06:27:42.047Z,12.87
2022-10-29T06:30:12.423Z,13.93
2022-10-29T06:32:41.335Z,13.07
2022-10-29T06:35:10.853Z,12.53
2022-10-29T06:37:38.856Z,13.47
2022-10-29T06:40:07.616Z,12.53
2022-10-29T06:42:35.234Z,12.07
2022-10-29T06:45:02.721Z,11.93
2022-10-29T06:47:30.387Z,12.17
2022-10-29T06:49:59.249Z,11.43
2022-10-29T06:52:26.740Z,12.20
2022-10-29T06:54:54.219Z,12.40
2022-10-29T06:57:23.328Z,12.00
2022-10-29T06:59:50.901Z,12.90
2022-10-29T07:02:19.894Z,13.70
2022-10-29T07:04:47.531Z,12.40
2022-10-29T07:07:16.483Z,12.37
2022-10-29T07:09:44.125Z,11.93
2022-10-29T07:12:12.542Z,14.43
2022-10-29T07:14:40.035Z,12.23
2022-10-29T07:17:07.581Z,12.27
2022-10-29T07:19:35.077Z,13.00
2022-10-29T07:22:02.612Z,13.87
2022-10-29T07:24:31.451Z,12.60
2022-10-29T07:26:59.049Z,13.23
2022-10-29T07:29:26.545Z,12.80
2022-10-29T07:31:54.113Z,12.70
2022-10-29T07:34:21.620Z,14.47
2022-10-29T07:36:49.174Z,16.10
2022-10-29T07:39:17.209Z,22.60
2022-10-29T07:41:46.146Z,21.50
2022-10-29T07:44:13.646Z,21.77
2022-10-29T07:46:41.361Z,22.83
2022-10-29T07:49:08.873Z,22.70
2022-10-29T07:51:36.513Z,25.80
2022-10-29T07:54:04.095Z,22.90
2022-10-29T07:56:31.653Z,21.40
2022-10-29T07:59:00.549Z,22.97
2022-10-29T08:01:28.118Z,22.20
2022-10-29T08:03:55.793Z,24.60
2022-10-29T08:06:23.314Z,24.50
2022-10-29T08:08:50.866Z,27.27
2022-10-29T08:11:18.346Z,27.27
2022-10-29T08:13:49.165Z,27.90
2022-10-29T08:16:18.415Z,27.70
2022-10-29T08:18:46.220Z,25.07
2022-10-29T08:21:13.754Z,25.23
2022-10-29T08:23:41.295Z,24.33
2022-10-29T08:26:08.905Z,25.30
2022-10-29T08:28:36.666Z,26.03
2022-10-29T08:31:04.330Z,28.57
2022-10-29T08:33:33.287Z,25.93
2022-10-29T08:36:00.836Z,28.27
2022-10-29T08:38:28.383Z,28.60
2022-10-29T08:41:08.006Z,26.90
2022-10-29T08:44:04.368Z,26.27
2022-10-29T08:46:40.493Z,30.50
2022-10-29T08:49:14.371Z,31.03
2022-10-29T08:51:43.772Z,30.20
2022-10-29T08:57:06.522Z,29.90
2022-10-29T08:59:37.791Z,29.20
2022-10-29T09:02:05.372Z,29.83
2022-10-29T09:04:35.773Z,29.70
2022-10-29T09:07:19.925Z,29.03
2022-10-29T09:09:52.060Z,30.97
2022-10-29T09:12:34.028Z,27.13
2022-10-29T09:15:20.146Z,27.57
2022-10-29T09:17:54.503Z,27.47
2022-10-29T09:20:31.412Z,25.97
2022-10-29T09:23:06.978Z,25.90
2022-10-29T09:25:40.423Z,25.57
2022-10-29T09:28:17.940Z,24.20
2022-10-29T09:30:51.289Z,24.23
2022-10-29T09:33:21.617Z,23.73
2022-10-29T09:35:54.598Z,24.67
2022-10-29T09:38:25.537Z,23.90
2022-10-29T09:40:53.363Z,24.60
2022-10-29T09:43:33.453Z,23.70
2022-10-29T09:46:07.499Z,24.43
2022-10-29T09:48:39.353Z,23.13
2022-10-29T09:51:16.158Z,23.33
2022-10-29T09:53:44.177Z,23.47
2022-10-29T09:56:11.786Z,23.00
2022-10-29T09:58:42.580Z,23.63
2022-10-29T10:01:10.214Z,23.40
2022-10-29T10:03:41.803Z,24.87
2022-10-29T10:06:12.463Z,22.47
2022-10-29T10:09:00.006Z,24.10
2022-10-29T10:11:31.602Z,25.23
2022-10-29T10:14:00.764Z,26.30
2022-10-29T10:16:29.731Z,26.73
2022-10-29T10:18:57.435Z,27.17
2022-10-29T10:21:28.394Z,26.50
2022-10-29T10:23:57.578Z,27.10
2022-10-29T10:26:36.126Z,24.67
2022-10-29T10:29:13.258Z,25.57
2022-10-29T10:31:41.662Z,23.50
2022-10-29T10:34:15.766Z,24.03
2022-10-29T10:36:46.283Z,23.90
2022-10-29T10:39:23.904Z,25.53
2022-10-29T10:41:52.141Z,24.03
2022-10-29T10:44:20.701Z,24.57
2022-10-29T10:46:48.874Z,24.30
2022-10-29T10:49:18.670Z,24.80
2022-10-29T10:51:50.031Z,24.60
2022-10-29T10:54:31.182Z,24.63
2022-10-29T10:57:01.018Z,24.83
2022-10-29T10:59:34.961Z,25.77
2022-10-29T11:02:04.185Z,23.77
2022-10-29T11:04:35.900Z,22.70
2022-10-29T11:07:07.443Z,23.00
2022-10-29T11:09:39.067Z,22.53
2022-10-29T11:12:12.052Z,21.57
2022-10-29T11:14:45.600Z,20.60
2022-10-29T11:17:24.645Z,21.17
2022-10-29T11:19:52.887Z,20.73
2022-10-29T11:22:24.062Z,19.37
2022-10-29T11:24:56.336Z,18.30
2022-10-29T11:27:29.276Z,17.13
2022-10-29T11:30:03.825Z,15.50
2022-10-29T11:32:36.121Z,15.00
2022-10-29T11:35:06.394Z,15.67
2022-10-29T11:37:40.961Z,15.43
2022-10-29T11:40:13.985Z,14.90
2022-10-29T11:42:41.787Z,15.00
2022-10-29T11:45:12.973Z,14.43
2022-10-29T11:47:51.525Z,15.17
2022-10-29T11:50:27.448Z,14.90
2022-10-29T11:53:03.472Z,14.47
2022-10-29T11:55:37.063Z,15.23
2022-10-29T11:58:10.922Z,14.13
2022-10-29T12:00:48.023Z,13.50
2022-10-29T12:03:57.624Z,13.30
2022-10-29T12:06:32.604Z,15.27
2022-10-29T12:09:24.614Z,15.33
2022-10-29T12:11:55.651Z,16.73
2022-10-29T12:14:28.158Z,15.20
2022-10-29T12:17:02.300Z,14.50
2022-10-29T12:19:38.655Z,14.10
2022-10-29T12:22:14.852Z,13.10
2022-10-29T12:24:54.644Z,13.50
2022-10-29T12:27:26.285Z,16.50
2022-10-29T12:29:58.981Z,12.70
2022-10-29T12:32:30.821Z,12.73
2022-10-29T12:35:03.025Z,13.53
2022-10-29T12:37:39.032Z,14.93
2022-10-29T12:40:16.216Z,14.00
2022-10-29T12:42:44.066Z,13.67
2022-10-29T12:45:23.324Z,13.30
2022-10-29T12:47:55.567Z,13.80
2022-10-29T12:50:29.926Z,11.60
2022-10-29T12:53:04.168Z,12.50
2022-10-29T12:55:34.514Z,12.17
2022-10-29T12:58:45.673Z,13.00
2022-10-29T13:02:09.768Z,11.90
2022-10-29T13:04:32.716Z,12.97
2022-10-29T13:07:05.416Z,10.40
2022-10-29T13:09:35.778Z,10.33
2022-10-29T13:12:06.230Z,11.53
2022-10-29T13:14:38.073Z,10.27
2022-10-29T13:17:07.328Z,9.10
2022-10-29T13:19:40.777Z,9.40
2022-10-29T13:22:33.470Z,9.33
2022-10-29T13:25:30.069Z,9.73
2022-10-29T13:27:59.103Z,12.43
2022-10-29T13:30:29.005Z,10.80
2022-10-29T13:32:57.465Z,10.67
2022-10-29T13:35:41.939Z,9.43
2022-10-29T13:38:19.190Z,9.10
2022-10-29T13:41:12.772Z,9.10
2022-10-29T13:43:44.208Z,8.70
2022-10-29T13:46:32.516Z,10.07
2022-10-29T13:49:03.105Z,8.87
2022-10-29T13:51:38.043Z,17.30
2022-10-29T13:54:09.055Z,10.80
2022-10-29T13:56:42.668Z,10.87
2022-10-29T13:59:22.815Z,10.33
2022-10-29T14:01:59.805Z,8.50
2022-10-29T14:04:31.128Z,10.17
2022-10-29T14:06:59.820Z,10.73
2022-10-29T14:09:34.391Z,11.87
2022-10-29T14:12:04.093Z,10.60
2022-10-29T14:14:36.014Z,10.70
2022-10-29T14:17:11.439Z,9.73
2022-10-29T14:19:39.125Z,11.70
2022-10-29T14:22:29.855Z,9.93
2022-10-29T14:24:57.509Z,12.00
2022-10-29T14:27:25.150Z,11.20
2022-10-29T14:29:55.626Z,11.43
2022-10-29T14:32:23.992Z,12.97
2022-10-29T14:34:52.608Z,9.93
2022-10-29T14:37:24.747Z,11.00
2022-10-29T14:40:00.775Z,10.50
2022-10-29T14:42:33.334Z,10.30
2022-10-29T14:45:04.312Z,10.87
2022-10-29T14:47:33.667Z,11.87
2022-10-29T14:50:03.636Z,10.27
2022-10-29T14:52:33.652Z,14.40
2022-10-29T14:55:03.384Z,11.40
2022-10-29T14:57:34.377Z,9.30
2022-10-29T15:00:06.524Z,10.37
2022-10-29T15:02:38.590Z,12.27
2022-10-29T15:05:23.883Z,10.90
2022-10-29T15:07:51.693Z,10.80
2022-10-29T15:10:22.318Z,10.00
2022-10-29T15:12:50.870Z,11.70
2022-10-29T15:15:28.440Z,9.97
2022-10-29T15:18:00.082Z,12.27
2022-10-29T15:20:32.526Z,11.00
2022-10-29T15:23:00.480Z,10.90
2022-10-29T15:25:31.117Z,11.87
2022-10-29T15:27:59.393Z,12.60
2022-10-29T15:30:35.264Z,10.53
2022-10-29T15:33:08.301Z,11.00
2022-10-29T15:35:36.731Z,9.83
2022-10-29T15:38:04.478Z,10.47
2022-10-29T15:40:32.143Z,11.47
2022-10-29T15:43:27.698Z,11.23
2022-10-29T15:45:58.427Z,12.57
2022-10-29T15:48:36.196Z,11.30
2022-10-29T15:51:04.447Z,10.80
2022-10-29T15:53:32.037Z,10.70
2022-10-29T15:56:00.568Z,12.17
2022-10-29T15:58:29.300Z,11.10
2022-10-29T16:00:58.283Z,11.60
2022-10-29T16:03:27.388Z,11.67
2022-10-29T16:05:56.267Z,12.07
2022-10-29T16:08:26.495Z,12.27
2022-10-29T16:10:54.973Z,11.20
2022-10-29T16:13:23.752Z,10.63
2022-10-29T16:15:51.397Z,11.73
2022-10-29T16:18:21.022Z,12.27
2022-10-29T16:20:49.077Z,13.23
2022-10-29T16:23:16.779Z,15.57
2022-10-29T16:25:44.606Z,15.03
2022-10-29T16:28:12.386Z,15.50
2022-10-29T16:33:13.338Z,15.13
2022-10-29T16:35:42.463Z,15.93
2022-10-29T16:38:10.237Z,14.63
2022-10-29T16:40:38.111Z,15.10
2022-10-29T16:43:06.198Z,15.97
2022-10-29T16:45:33.926Z,16.83
2022-10-29T16:48:01.944Z,16.70
2022-10-29T16:50:31.195Z,14.80
2022-10-29T16:53:01.566Z,17.10
2022-10-29T16:55:30.178Z,14.73
2022-10-29T16:57:58.342Z,16.23
2022-10-29T17:00:26.864Z,17.07
2022-10-29T17:02:54.837Z,17.60
2022-10-29T17:05:23.027Z,15.53
2022-10-29T17:07:50.772Z,16.13
2022-10-29T17:10:20.114Z,18.77
2022-10-29T17:12:48.292Z,16.33
2022-10-29T17:15:16.220Z,22.10
2022-10-29T17:17:46.347Z,17.70
2022-10-29T17:20:14.652Z,16.87
2022-10-29T17:22:42.349Z,17.37
2022-10-29T17:25:10.796Z,17.50
2022-10-29T17:27:40.447Z,17.13
2022-10-29T17:30:10.294Z,15.93
2022-10-29T17:32:38.134Z,18.03
2022-10-29T17:35:06.423Z,18.07
2022-10-29T17:37:34.175Z,19.30
2022-10-29T17:40:05.155Z,20.43
2022-10-29T17:42:37.107Z,17.17
2022-10-29T17:45:08.079Z,19.40
2022-10-29T17:47:36.067Z,18.37
2022-10-29T17:50:04.103Z,19.70
2022-10-29T17:52:32.103Z,19.30
2022-10-29T17:55:00.104Z,20.37
2022-10-29T17:57:27.674Z,20.17
2022-10-29T17:59:55.898Z,20.37
2022-10-29T18:02:25.179Z,20.57
2022-10-29T18:04:53.232Z,21.87
2022-10-29T18:07:21.185Z,20.30
2022-10-29T18:09:49.131Z,21.50
2022-10-29T18:12:17.083Z,20.80
2022-10-29T18:14:45.106Z,21.73
2022-10-29T18:17:12.857Z,21.23
2022-10-29T18:19:42.021Z,19.70
2022-10-29T18:22:09.821Z,22.43
2022-10-29T18:24:37.449Z,20.47
2022-10-29T18:27:05.417Z,20.33
2022-10-29T18:29:33.544Z,21.20
2022-10-29T18:32:01.361Z,21.47
2022-10-29T18:34:29.248Z,22.10
2022-10-29T18:36:58.696Z,21.10
2022-10-29T18:39:26.531Z,20.47
2022-10-29T18:41:54.500Z,21.77
2022-10-29T18:44:22.617Z,22.23
2022-10-29T18:46:50.728Z,20.87
2022-10-29T18:49:18.575Z,22.13
2022-10-29T18:51:46.436Z,23.20
2022-10-29T18:54:15.725Z,21.37
2022-10-29T18:56:43.613Z,22.60
2022-10-29T18:59:12.655Z,23.17
2022-10-29T19:01:40.609Z,22.67
2022-10-29T19:04:09.699Z,21.43
2022-10-29T19:06:38.212Z,23.90
2022-10-29T19:09:08.471Z,22.73
2022-10-29T19:11:37.718Z,23.10
2022-10-29T19:14:07.018Z,23.90
2022-10-29T19:16:34.867Z,22.70
2022-10-29T19:21:39.692Z,21.57
2022-10-29T19:24:08.783Z,24.10
2022-10-29T19:26:38.465Z,22.63
2022-10-29T19:29:07.743Z,23.53
2022-10-29T19:31:36.870Z,24.20
2022-10-29T19:34:06.764Z,24.20
2022-10-29T19:36:36.459Z,22.67
2022-10-29T19:39:05.004Z,23.47
2022-10-29T19:41:33.132Z,24.63
2022-10-29T19:44:02.682Z,22.97
2022-10-29T19:46:30.975Z,24.17
2022-10-29T19:48:59.088Z,24.90
2022-10-29T19:51:26.864Z,23.80
2022-10-29T19:53:57.280Z,23.57
2022-10-29T19:56:24.992Z,23.10
2022-10-29T19:58:53.242Z,24.03
2022-10-29T20:01:22.435Z,24.27
2022-10-29T20:03:50.828Z,24.17
2022-10-29T20:06:21.422Z,24.47
2022-10-29T20:08:49.160Z,24.57
2022-10-29T20:11:17.787Z,25.83
2022-10-29T20:13:45.734Z,25.20
2022-10-29T20:16:16.054Z,25.80
2022-10-29T20:18:45.191Z,24.40
2022-10-29T20:21:13.610Z,26.17
2022-10-29T20:23:41.510Z,25.70
2022-10-29T20:26:09.879Z,27.03
2022-10-29T20:28:38.039Z,24.80
2022-10-29T20:31:29.695Z,25.70
2022-10-29T20:34:00.742Z,25.80
2022-10-29T20:36:30.301Z,25.47
2022-10-29T20:38:58.726Z,26.37
2022-10-29T20:41:26.418Z,25.90
2022-10-29T20:43:55.738Z,25.60
2022-10-29T20:46:24.129Z,26.03
2022-10-29T20:48:51.899Z,24.50
2022-10-29T20:51:22.668Z,26.40
2022-10-29T20:53:50.548Z,24.37
2022-10-29T20:56:18.646Z,26.27
2022-10-29T20:58:46.431Z,25.67
2022-10-29T21:01:15.747Z,26.50
2022-10-29T21:03:43.986Z,28.73
2022-10-29T21:06:17.112Z,26.10
2022-10-29T21:08:46.577Z,26.90
2022-10-29T21:11:15.632Z,28.57
2022-10-29T21:13:43.187Z,27.60
2022-10-29T21:16:16.109Z,29.13
2022-10-29T21:18:44.875Z,29.10
2022-10-29T21:21:12.716Z,27.10
2022-10-29T21:23:40.974Z,27.23
2022-10-29T21:26:12.847Z,26.67
2022-10-29T21:28:40.513Z,27.03
2022-10-29T21:31:08.389Z,28.13
2022-10-29T21:33:36.402Z,28.67
2022-10-29T21:36:04.158Z,28.40
2022-10-29T21:38:33.272Z,27.40
2022-10-29T21:41:02.002Z,30.70
2022-10-29T21:43:31.028Z,28.37
2022-10-29T21:45:58.990Z,30.10
2022-10-29T21:48:27.001Z,34.37
2022-10-29T21:51:00.858Z,28.23
2022-10-29T21:53:28.382Z,28.87
2022-10-29T21:55:59.045Z,28.80
2022-10-29T21:58:27.085Z,28.00
2022-10-29T22:01:04.603Z,28.30
2022-10-29T22:03:32.968Z,27.63
2022-10-29T22:06:04.968Z,30.83
2022-10-29T22:08:32.440Z,30.27
2022-10-29T22:11:00.318Z,32.07
2022-10-29T22:13:28.365Z,27.73
2022-10-29T22:15:59.579Z,29.40
2022-10-29T22:18:29.065Z,29.23
2022-10-29T22:21:07.862Z,27.80
2022-10-29T22:23:35.886Z,24.80
2022-10-29T22:26:03.361Z,27.80
2022-10-29T22:28:30.941Z,29.13
2022-10-29T22:31:00.110Z,28.20
2022-10-29T22:33:29.601Z,29.17
2022-10-29T22:35:57.384Z,26.83
2022-10-29T22:38:24.998Z,28.87
2022-10-29T22:40:52.571Z,30.67
2022-10-29T22:43:20.135Z,31.07
2022-10-29T22:45:47.857Z,32.00
2022-10-29T22:48:15.496Z,28.67
2022-10-29T22:50:44.594Z,32.00
2022-10-29T22:53:12.149Z,31.43
2022-10-29T22:55:39.833Z,31.10
2022-10-29T22:58:07.354Z,31.10
2022-10-29T23:00:35.088Z,29.77
2022-10-29T23:03:02.672Z,32.70
2022-10-29T23:05:30.229Z,30.40
2022-10-29T23:07:59.830Z,31.17
2022-10-29T23:10:27.813Z,32.17
2022-10-29T23:12:55.519Z,28.80
2022-10-29T23:15:23.195Z,30.43
2022-10-29T23:17:53.966Z,29.67
2022-10-29T23:20:21.620Z,28.27
2022-10-29T23:22:49.112Z,29.03
2022-10-29T23:25:18.306Z,28.70
2022-10-29T23:27:45.874Z,30.00
2022-10-29T23:30:14.132Z,29.20
2022-10-29T23:32:41.656Z,28.70
2022-10-29T23:35:09.846Z,26.90
2022-10-29T23:37:37.427Z,28.17
2022-10-29T23:40:05.675Z,27.57
2022-10-29T23:42:34.540Z,29.70
2022-10-29T23:45:06.895Z,28.57
2022-10-29T23:47:35.497Z,26.43
2022-10-29T23:50:03.131Z,28.10
2022-10-29T23:52:31.016Z,26.67
2022-10-29T23:54:58.564Z,26.40
2022-10-29T23:57:26.248Z,26.90
2022-10-29T23:59:55.088Z,25.93
